Airfield :
LOGIN :

Register | Disclaimer

   EN    FR    IT 

 










Legend :    VFR   Marginal VFR   IFR   Intensive IFR   Very Intensive IFR
Visi :
Ceiling :
>= 8 km
>= 3000ft
5 to 8 km
1000 to 3000 ft
1500m to 5 km
500 to 1000 ft
800 to 1500m
200 to 500 ft
< 800m
< 200 ft
Symbols :   Thunderstorms  Fog  Heavy snow  Heavy precipitations  Wind > 20 kt
SIGMETs :     Misc.  Thunderstorms  Icing  Turbulence  Mountain Waves  Volcanic Ashes






- Airport Elevation : 187 ft


LPMR - Monte Real Air Base

CURRENT METAR :
  • 290900Z 26008KT 230V300 8000 FEW010 SCT015 BKN030 18/16 Q1013

EXPIRED METARs :
  • 290700Z 29006KT 9000 SCT014 BKN025 16/15 Q1014

TAF TAF LPMR
Valid from the 29 at 06:00 until the 30 at 06:00 UTC


290501Z 2906/3006 33005KT 9999 SCT014 BKN025
BECMG 2908/2910 34012KT
TEMPO 2908/2914 3000 RADZ BR SCT005 BKN008
TEMPO 2909/2918 35015G25KT
BECMG 2915/2917 FEW025
BECMG 3001/3003 35005KT



MET'MAP, your aeronautical weather chart ! - Copyright ORBIFLY December 2007 - Disclaimer

ORBIFLY MET'MAP TEAM :

Programming & Development : Alexandra Zaïnal
Original concept : Baudouin d'Aumeries
Technical & hardware support : Manuel Goepfert
Assistance : Marc-Olivier Méhu




SOURCES & CREDITS :

   NOAA